Página principal
METAR-TAF:

METAR-TAF

Aeroportos :

Harbin, China

Aeroporto Internacional Harbin Taiping

latitude: 45-45N, longitude: 126-46E, altura: 143 m

Observação actual do tempo

O boletim foi feito há 1 hora e 14 minutos, às 06:00 UTC
Vento 16 kt de norte com rajadas de 27 kt, variando entre noroeste e nor-nordeste
Temperatura 16°C
Humidade 25%
Pressão 1002 hPa
Visibilidade 10 km ou mais
Nuvens dispersasa uma altura de 4000 ft

METAR: ZYHB 270600Z 36008G14MPS 320V030 9999 SCT040 16/M04 Q1002 NOSIG

Hora: 15:14 (07:14 UTC)

Previsão

O boletim foi feito há 4 horas e 8 minutos, às 03:06 UTC
Previsão válida de 27 às 06 UTC a 28 às 06 UTC
Vento 10 kt de nor-noroeste
Visibilidade: 6000 m
Nuvens dispersasa uma altura de 3000 ft

TAF: ZYHB 270306Z 2706/2806 33005MPS 6000 SCT030 TX18/2706Z TN02/2721Z

Observações e previsões do tempo de mais de 4000 aeroportos (mensagens METAR e TAF).

As estações disponíveis são os pontos amarelos e vermelhos sobre o mapa.

Mova o rato sobre o mapa para ver o nome da estação.

Depois clique no ponto para visualizar as observações e previsões meteorológicas.

Para alterar o mapa : clique nos botões verdes com uma cruz preta para aumentar o zoom; no botão verde com uma pitada de zoom; ou nas setas verdes para mapas adjacentes.


METAR-TAF: